Time;durP1;ratioP1;P1;durP2;ratioP2;P2;SDS_P1;SDS_P2;PMS_P1;PMS_P2;Temp;Humidity;BMP_temperature;BMP_pressure;BME280_temperature;BME280_humidity;BME280_pressure;Samples;Min_cycle;Max_cycle;Signal;HPM_P1;HPM_P2
2021/05/09 00:00:09;;;;;;;7.62;5.68;;;;;;;9.96;49.84;100452.69;4377866;32;33323;-92
2021/05/09 00:03:14;;;;;;;8.70;5.97;;;;;;;10.05;49.88;100457.13;4377473;32;33634;-92
2021/05/09 00:05:41;;;;;;;7.85;5.22;;;;;;;9.85;50.34;100467.28;4366959;32;33860;-92
2021/05/09 00:08:25;;;;;;;10.05;5.75;;;;;;;9.78;50.42;100473.25;4390277;32;32394;-92
2021/05/09 00:11:04;;;;;;;8.55;5.78;;;;;;;9.71;50.98;100466.22;4374066;32;33789;-91
2021/05/09 00:14:04;;;;;;;10.27;5.65;;;;;;;9.73;50.92;100461.91;4413649;32;33661;-91
2021/05/09 00:16:43;;;;;;;11.10;5.78;;;;;;;9.79;50.75;100463.72;4367734;32;32918;-94
2021/05/09 00:19:25;;;;;;;6.70;4.97;;;;;;;9.65;50.95;100463.53;4366226;32;33368;-92
2021/05/09 00:22:26;;;;;;;9.18;6.00;;;;;;;9.78;50.58;100467.16;4416461;32;34053;-93
2021/05/09 00:25:06;;;;;;;8.75;5.37;;;;;;;9.63;51.26;100467.81;4378499;32;34584;-93
2021/05/09 00:28:11;;;;;;;9.27;5.35;;;;;;;9.54;51.16;100462.50;4375404;32;33243;-92
2021/05/09 00:30:52;;;;;;;8.23;6.03;;;;;;;9.66;50.94;100465.28;4377543;32;33105;-92
2021/05/09 00:33:43;;;;;;;7.80;5.18;;;;;;;9.49;51.26;100469.34;4376837;32;33360;-91
2021/05/09 00:36:24;;;;;;;8.18;5.68;;;;;;;9.50;51.51;100464.19;4388749;32;33620;-93
2021/05/09 00:39:26;;;;;;;9.02;5.28;;;;;;;9.34;51.82;100464.81;4383177;32;33432;-93
2021/05/09 00:42:06;;;;;;;8.00;4.97;;;;;;;9.61;50.73;100466.06;4406895;32;32128;-92
2021/05/09 00:44:38;;;;;;;5.97;4.50;;;;;;;9.45;51.34;100462.38;4397098;32;33354;-92
2021/05/09 00:47:40;;;;;;;5.62;4.20;;;;;;;10.02;50.08;100457.97;4489751;32;271499;-92
2021/05/09 00:50:32;;;;;;;10.10;4.97;;;;;;;10.02;50.08;100457.97;4363537;32;33007;-92
2021/05/09 00:53:01;;;;;;;8.00;4.55;;;;;;;9.46;50.97;100456.34;4350936;32;34327;-92
2021/05/09 00:55:42;;;;;;;6.32;4.37;;;;;;;9.49;51.44;100461.56;4332650;33;34117;-93
2021/05/09 00:58:26;;;;;;;6.22;4.72;;;;;;;9.53;51.18;100450.37;4350003;32;33829;-93
2021/05/09 01:01:23;;;;;;;8.55;4.90;;;;;;;9.34;51.59;100453.56;4319809;33;32179;-91
2021/05/09 01:04:26;;;;;;;7.35;4.35;;;;;;;9.35;51.72;100450.09;4343863;33;33770;-92
2021/05/09 01:07:20;;;;;;;5.90;4.43;;;;;;;9.43;51.08;100454.59;4346279;33;33726;-92
2021/05/09 01:10:11;;;;;;;5.87;4.22;;;;;;;9.24;51.54;100446.47;4325038;33;33524;-92
2021/05/09 01:13:10;;;;;;;6.43;4.12;;;;;;;9.33;51.14;100446.63;4322361;33;32442;-91
2021/05/09 01:15:54;;;;;;;6.30;4.50;;;;;;;9.25;51.85;100450.81;4346744;33;33838;-94
2021/05/09 01:18:54;;;;;;;6.37;5.07;;;;;;;9.29;51.79;100450.03;4348999;33;33434;-93
2021/05/09 01:21:42;;;;;;;6.32;4.75;;;;;;;9.29;52.02;100450.03;4372048;32;33390;-93
2021/05/09 01:24:39;;;;;;;6.65;4.68;;;;;;;9.20;51.79;100445.56;4355775;33;33655;-91
2021/05/09 01:27:22;;;;;;;7.65;4.03;;;;;;;9.06;52.23;100443.59;4372477;32;34287;-92
2021/05/09 01:30:25;;;;;;;6.05;4.30;;;;;;;9.21;51.84;100441.22;4362660;33;33986;-93
2021/05/09 01:33:06;;;;;;;6.80;4.93;;;;;;;9.27;51.87;100436.16;4373417;32;33355;-93
2021/05/09 01:35:46;;;;;;;7.40;4.78;;;;;;;9.32;52.25;100429.28;4351060;32;32677;-93
2021/05/09 01:38:39;;;;;;;6.05;4.90;;;;;;;9.19;52.74;100437.75;4350921;32;34018;-93
2021/05/09 01:41:30;;;;;;;5.93;4.00;;;;;;;9.11;52.71;100432.44;4328095;33;35509;-93
2021/05/09 01:44:09;;;;;;;7.35;4.85;;;;;;;9.09;52.87;100441.03;4358894;32;33499;-91
2021/05/09 01:47:08;;;;;;;6.60;5.20;;;;;;;9.11;53.03;100439.34;4348896;33;32371;-93
2021/05/09 01:50:13;;;;;;;6.03;4.57;;;;;;;8.96;53.25;100439.12;4363999;32;34175;-92
2021/05/09 01:52:55;;;;;;;7.15;4.80;;;;;;;9.02;53.15;100442.69;4387527;32;34905;-92
2021/05/09 01:55:46;;;;;;;7.37;4.87;;;;;;;9.03;53.23;100446.16;4342999;33;33307;-92
2021/05/09 01:58:27;;;;;;;5.80;4.60;;;;;;;9.07;53.22;100445.34;4339987;33;32844;-92
2021/05/09 02:01:18;;;;;;;8.48;4.80;;;;;;;9.04;53.07;100448.75;4377718;32;33162;-93
2021/05/09 02:04:10;;;;;;;6.60;4.70;;;;;;;8.95;53.27;100447.72;4354143;32;34247;-93
2021/05/09 02:07:02;;;;;;;12.07;5.07;;;;;;;8.96;53.10;100446.91;4357724;32;34213;-92
2021/05/09 02:09:44;;;;;;;6.70;4.90;;;;;;;8.92;53.44;100447.69;4362813;32;33570;-93
2021/05/09 02:12:39;;;;;;;6.50;4.60;;;;;;;8.87;53.50;100444.16;4348220;33;35003;-93
2021/05/09 02:15:41;;;;;;;7.22;5.25;;;;;;;9.00;53.12;100440.91;4368814;32;33810;-92
2021/05/09 02:18:44;;;;;;;7.50;4.70;;;;;;;8.90;53.47;100442.47;4357253;32;33243;-93
2021/05/09 02:21:26;;;;;;;7.47;4.78;;;;;;;8.82;53.86;100437.16;4340897;32;33186;-93
2021/05/09 02:24:21;;;;;;;9.93;5.05;;;;;;;8.99;53.54;100431.34;4387189;32;33690;-92
2021/05/09 02:27:15;;;;;;;7.10;4.78;;;;;;;8.77;53.95;100432.75;4365319;32;34867;-92
2021/05/09 02:30:07;;;;;;;7.32;5.15;;;;;;;8.72;53.99;100440.44;4367680;32;32879;-92
2021/05/09 02:32:54;;;;;;;9.32;5.53;;;;;;;8.80;54.11;100440.56;4358419;32;33110;-93
2021/05/09 02:35:48;;;;;;;7.07;5.25;;;;;;;8.71;54.47;100449.06;4337998;33;33158;-93
2021/05/09 02:38:41;;;;;;;8.73;5.22;;;;;;;8.65;54.50;100448.94;4377507;32;35826;-91
2021/05/09 02:41:17;;;;;;;6.93;4.55;;;;;;;8.72;53.98;100450.81;4367803;32;34016;-93
2021/05/09 02:44:05;;;;;;;8.02;5.07;;;;;;;8.65;54.21;100443.75;4367733;32;32904;-92
2021/05/09 02:46:58;;;;;;;9.02;5.53;;;;;;;8.80;54.05;100453.53;4362407;32;33624;-92
2021/05/09 02:49:40;;;;;;;7.93;5.32;;;;;;;8.74;54.00;100451.72;4389791;32;33777;-92
2021/05/09 02:52:20;;;;;;;7.87;5.28;;;;;;;8.73;54.02;100452.56;4366179;32;34233;-92
2021/05/09 02:55:17;;;;;;;7.62;5.28;;;;;;;8.68;54.03;100459.38;4362344;32;33498;-92
2021/05/09 02:58:08;;;;;;;9.40;5.10;;;;;;;8.76;54.04;100463.00;4347595;33;33395;-92
2021/05/09 03:00:59;;;;;;;7.20;5.20;;;;;;;8.59;54.36;100461.81;4352094;32;33698;-92
2021/05/09 03:04:09;;;;;;;9.00;5.50;;;;;;;8.61;54.25;100467.03;4377223;32;33117;-92
2021/05/09 03:07:11;;;;;;;11.60;6.22;;;;;;;8.57;54.16;100460.91;4356622;32;33267;-92
2021/05/09 03:10:03;;;;;;;9.20;5.82;;;;;;;8.64;54.00;100467.97;4351793;32;33617;-92
2021/05/09 03:12:54;;;;;;;8.13;5.43;;;;;;;8.35;54.86;100474.31;4363130;32;34214;-92
2021/05/09 03:15:46;;;;;;;8.03;5.63;;;;;;;8.40;55.03;100477.00;4374750;32;34616;-93
2021/05/09 03:18:40;;;;;;;6.87;5.18;;;;;;;8.46;54.81;100483.16;4363693;32;33158;-92
2021/05/09 03:21:45;;;;;;;8.15;5.10;;;;;;;8.60;54.51;100475.66;4339699;33;33319;-93
2021/05/09 03:24:19;;;;;;;8.13;4.85;;;;;;;8.41;54.98;100484.81;4350840;32;35363;-92
2021/05/09 03:27:20;;;;;;;7.68;5.22;;;;;;;8.44;54.81;100479.66;4362826;32;33256;-92
2021/05/09 03:29:59;;;;;;;8.75;4.87;;;;;;;8.56;54.65;100479.91;4334924;33;33008;-92
2021/05/09 03:32:50;;;;;;;9.55;5.62;;;;;;;8.51;54.87;100481.53;4392176;32;34002;-92
2021/05/09 03:35:29;;;;;;;8.18;5.10;;;;;;;8.53;54.92;100494.53;4366182;32;34666;-92
2021/05/09 03:38:23;;;;;;;11.27;5.50;;;;;;;8.45;55.16;100486.62;4373219;32;33369;-91
2021/05/09 03:41:03;;;;;;;6.15;4.68;;;;;;;8.37;55.38;100488.19;4370557;32;34036;-92
2021/05/09 03:43:55;;;;;;;8.70;5.78;;;;;;;8.40;55.37;100493.44;4382879;32;33754;-92
2021/05/09 03:47:01;;;;;;;11.45;6.03;;;;;;;8.61;54.83;100487.75;4362964;32;33622;-93
2021/05/09 03:49:57;;;;;;;8.35;5.43;;;;;;;8.59;55.18;100490.34;4382729;32;33864;-93
2021/05/09 03:52:36;;;;;;;8.77;5.32;;;;;;;8.57;55.27;100492.03;4372558;32;32450;-93
2021/05/09 03:55:27;;;;;;;8.70;5.47;;;;;;;8.60;55.27;100497.28;4367856;32;33101;-92
2021/05/09 03:58:07;;;;;;;9.63;6.00;;;;;;;8.65;55.16;100500.81;4399985;32;34860;-93
2021/05/09 04:00:59;;;;;;;10.95;5.82;;;;;;;8.76;55.08;100498.44;4391727;32;33925;-92
2021/05/09 04:03:51;;;;;;;8.57;5.87;;;;;;;8.88;54.50;100502.97;4363931;32;33539;-92
2021/05/09 04:06:31;;;;;;;13.27;6.62;;;;;;;8.83;54.99;100502.88;4382172;32;33164;-92
2021/05/09 04:09:31;;;;;;;7.78;5.25;;;;;;;9.02;54.40;100504.06;4380799;32;33842;-92
2021/05/09 04:12:14;;;;;;;10.88;5.75;;;;;;;8.96;54.68;100516.94;4358567;32;33398;-92
2021/05/09 04:15:17;;;;;;;7.62;5.40;;;;;;;8.94;54.79;100513.47;4369097;32;33563;-92
2021/05/09 04:18:13;;;;;;;6.90;5.05;;;;;;;9.10;54.67;100513.75;4372346;32;33459;-94
2021/05/09 04:21:15;;;;;;;;;;;;;;;9.39;53.72;100509.00;4341109;32;33426;-91
2021/05/09 04:24:08;;;;;;;8.50;5.50;;;;;;;9.51;54.22;100515.25;4342175;32;34539;-92
2021/05/09 04:27:13;;;;;;;11.52;5.82;;;;;;;9.45;54.11;100524.69;4370908;32;31910;-93
2021/05/09 04:29:55;;;;;;;11.25;6.37;;;;;;;9.47;54.69;100523.00;4370466;32;33459;-94
2021/05/09 04:32:59;;;;;;;10.00;6.20;;;;;;;9.62;54.33;100523.22;4350437;32;33828;-93
2021/05/09 04:35:44;;;;;;;9.02;6.03;;;;;;;9.59;53.37;100523.19;4381003;32;33469;-93
2021/05/09 04:38:36;;;;;;;;;;;;;;;9.67;53.03;100531.09;4370884;32;32563;-93
2021/05/09 04:41:19;;;;;;;7.47;5.60;;;;;;;9.62;53.46;100533.62;4384638;32;35149;-92
2021/05/09 04:44:25;;;;;;;8.68;6.43;;;;;;;9.66;53.63;100525.00;4376636;32;34410;-92
2021/05/09 04:47:07;;;;;;;9.20;5.97;;;;;;;9.89;53.05;100534.00;4370109;32;34572;-91
2021/05/09 04:50:06;;;;;;;12.73;6.28;;;;;;;10.16;52.47;100537.03;4363584;32;32687;-92
2021/05/09 04:52:35;;;;;;;8.38;6.12;;;;;;;10.39;52.59;100542.50;4353850;32;32648;-92
2021/05/09 04:55:23;;;;;;;11.00;7.82;;;;;;;10.48;52.60;100540.03;4357944;32;35648;-91
2021/05/09 04:58:10;;;;;;;12.70;8.32;;;;;;;10.53;52.37;100537.50;4345189;32;33582;-91
2021/05/09 05:00:38;;;;;;;11.15;7.85;;;;;;;10.63;52.09;100531.50;4340850;32;33042;-91
2021/05/09 05:03:06;;;;;;;13.10;8.07;;;;;;;10.73;51.73;100539.44;4352906;32;33625;-92
2021/05/09 05:05:58;;;;;;;12.85;8.65;;;;;;;10.98;51.18;100542.31;4367485;32;35630;-91
2021/05/09 05:08:31;;;;;;;13.10;8.52;;;;;;;11.03;51.03;100541.47;4364882;32;34498;-91
2021/05/09 05:11:00;;;;;;;11.63;7.93;;;;;;;11.50;49.78;100537.53;4353073;32;32751;-91
2021/05/09 05:13:31;;;;;;;12.68;8.50;;;;;;;11.48;50.15;100534.06;4353244;32;33421;-92
2021/05/09 05:16:15;;;;;;;12.73;7.78;;;;;;;11.67;49.30;100536.81;4338340;32;33751;-92
2021/05/09 05:19:05;;;;;;;12.43;7.47;;;;;;;11.80;48.46;100536.06;4353029;32;33719;-91
2021/05/09 05:21:34;;;;;;;14.30;8.20;;;;;;;12.00;47.50;100532.72;4350742;32;33252;-92
2021/05/09 05:24:01;;;;;;;12.43;8.52;;;;;;;12.10;48.19;100536.22;4325849;32;33170;-91
2021/05/09 05:26:45;;;;;;;12.52;8.52;;;;;;;12.15;48.48;100540.62;4341570;32;34407;-91
2021/05/09 05:29:45;;;;;;;13.27;7.10;;;;;;;12.35;48.03;100538.09;4345341;32;34086;-91
2021/05/09 05:32:12;;;;;;;13.35;7.75;;;;;;;12.55;47.25;100528.59;4338170;32;32766;-92
2021/05/09 05:34:55;;;;;;;13.20;7.65;;;;;;;12.60;47.69;100537.31;4367556;32;34201;-91
2021/05/09 05:37:27;;;;;;;13.77;8.37;;;;;;;12.89;46.46;100533.06;4367594;32;34337;-91
2021/05/09 05:39:54;;;;;;;12.68;7.65;;;;;;;12.85;46.53;100531.31;4354792;32;33430;-92
2021/05/09 05:42:21;;;;;;;14.85;7.85;;;;;;;12.96;46.71;100538.28;4342252;32;33010;-92
2021/05/09 05:44:49;;;;;;;11.23;6.85;;;;;;;13.24;46.04;100537.50;4342467;32;33463;-92
2021/05/09 05:47:17;;;;;;;12.50;6.37;;;;;;;13.46;45.16;100544.47;4354880;32;34134;-92
2021/05/09 05:50:03;;;;;;;11.35;6.45;;;;;;;13.59;43.52;100543.59;4358483;32;33418;-92
2021/05/09 05:52:30;;;;;;;12.05;6.90;;;;;;;13.88;42.48;100547.03;4354989;32;33648;-93
2021/05/09 05:55:26;;;;;;;13.10;6.40;;;;;;;13.89;42.93;100538.31;4388585;32;33192;-91
2021/05/09 05:57:55;;;;;;;11.00;6.82;;;;;;;14.25;40.95;100546.09;4384965;32;34430;-91
2021/05/09 06:00:24;;;;;;;14.48;6.50;;;;;;;14.49;40.21;100536.41;4397009;32;33988;-91
2021/05/09 06:02:52;;;;;;;11.60;6.15;;;;;;;14.51;40.06;100534.66;4384475;32;33500;-90
2021/05/09 06:05:19;;;;;;;10.85;6.72;;;;;;;14.81;39.36;100537.12;4396249;32;33715;-91
2021/05/09 06:07:46;;;;;;;13.93;6.53;;;;;;;14.93;39.80;100542.28;4384133;32;34316;-91
2021/05/09 06:10:13;;;;;;;11.70;6.10;;;;;;;14.91;39.25;100538.81;4383884;32;33220;-91
2021/05/09 06:12:41;;;;;;;16.40;7.20;;;;;;;15.09;39.46;100536.09;4383788;32;33048;-91
2021/05/09 06:15:08;;;;;;;13.38;6.53;;;;;;;15.26;39.15;100538.59;4396681;32;33162;-91
2021/05/09 06:17:37;;;;;;;14.13;6.70;;;;;;;15.41;38.65;100541.06;4383891;32;34634;-91
2021/05/09 06:20:05;;;;;;;11.32;6.62;;;;;;;15.70;38.34;100535.59;4396552;32;33480;-90
2021/05/09 06:22:34;;;;;;;12.02;6.35;;;;;;;15.76;38.23;100530.31;4383935;32;32755;-91
2021/05/09 06:25:01;;;;;;;12.65;6.53;;;;;;;15.87;37.83;100534.56;4408713;32;34681;-92
2021/05/09 06:27:29;;;;;;;11.73;6.07;;;;;;;15.89;37.48;100530.19;4384055;32;34031;-91
2021/05/09 06:29:56;;;;;;;11.27;5.68;;;;;;;16.09;37.15;100533.44;4383530;32;33469;-90
2021/05/09 06:32:24;;;;;;;12.95;6.00;;;;;;;16.47;37.24;100534.78;4373456;32;32911;-91
2021/05/09 06:34:52;;;;;;;14.35;6.95;;;;;;;16.50;37.10;100532.09;4411783;32;33763;-89
2021/05/09 06:37:20;;;;;;;12.50;6.82;;;;;;;16.49;36.16;100536.50;4398069;32;34445;-90
2021/05/09 06:39:47;;;;;;;13.18;6.47;;;;;;;16.95;36.21;100536.75;4384389;32;34580;-90
2021/05/09 06:42:15;;;;;;;13.68;7.00;;;;;;;17.21;34.52;100539.88;4384425;32;32881;-90
2021/05/09 06:45:05;;;;;;;13.75;6.40;;;;;;;17.33;35.07;100536.19;4384245;32;33963;-89
2021/05/09 06:47:32;;;;;;;14.23;6.85;;;;;;;17.50;33.80;100527.12;4398986;32;34036;-91
2021/05/09 06:49:59;;;;;;;13.75;6.85;;;;;;;17.73;33.59;100525.91;4385163;32;35171;-91
2021/05/09 06:52:28;;;;;;;14.85;7.57;;;;;;;17.52;32.42;100541.16;4384108;32;34730;-89
2021/05/09 06:54:56;;;;;;;14.85;6.90;;;;;;;17.87;33.05;100532.66;4384885;32;33099;-89
2021/05/09 06:57:23;;;;;;;17.15;7.70;;;;;;;18.05;32.01;100529.66;4397314;32;35342;-93
2021/05/09 06:59:51;;;;;;;20.05;7.82;;;;;;;18.13;31.49;100535.66;4384128;32;33360;-88
2021/05/09 07:02:18;;;;;;;14.18;6.72;;;;;;;18.15;32.25;100522.47;4396877;32;32823;-89
2021/05/09 07:04:45;;;;;;;16.90;6.90;;;;;;;18.19;31.78;100513.59;4383668;32;32629;-89
2021/05/09 07:07:13;;;;;;;16.48;6.05;;;;;;;18.21;31.22;100524.97;4408813;32;34558;-89
2021/05/09 07:09:40;;;;;;;9.98;5.55;;;;;;;18.39;30.34;100521.09;4395689;32;35212;-88
2021/05/09 07:12:08;;;;;;;15.00;5.70;;;;;;;18.64;30.36;100517.06;4395956;32;32908;-89
2021/05/09 07:14:35;;;;;;;15.15;5.32;;;;;;;18.58;30.47;100518.09;4395910;32;33269;-88
2021/05/09 07:17:02;;;;;;;15.52;5.90;;;;;;;18.70;30.48;100517.84;4409381;32;33752;-91
2021/05/09 07:19:30;;;;;;;19.15;6.72;;;;;;;18.78;30.11;100509.72;4408284;32;33080;-90
2021/05/09 07:22:01;;;;;;;13.82;4.82;;;;;;;18.92;29.00;100508.53;4395974;32;33063;-89
2021/05/09 07:24:29;;;;;;;10.20;4.57;;;;;;;18.66;27.88;100515.31;4409267;32;34278;-88
2021/05/09 07:26:56;;;;;;;14.35;5.25;;;;;;;18.88;28.67;100511.28;4407728;32;33867;-89
2021/05/09 07:29:23;;;;;;;15.38;5.20;;;;;;;19.31;28.30;100512.00;4408425;32;35167;-88
2021/05/09 07:31:51;;;;;;;12.52;5.05;;;;;;;18.97;28.10;100516.31;4395799;32;34160;-89
2021/05/09 07:34:19;;;;;;;14.25;4.72;;;;;;;19.40;28.48;100516.19;4395776;32;34297;-89
2021/05/09 07:36:47;;;;;;;15.27;4.90;;;;;;;19.43;28.19;100516.13;4396428;32;34801;-91
2021/05/09 07:39:15;;;;;;;9.60;3.83;;;;;;;19.65;26.60;100508.53;4395661;32;34283;-91
2021/05/09 07:41:42;;;;;;;13.57;4.82;;;;;;;19.68;27.35;100511.13;4383312;32;34122;-92
2021/05/09 07:44:09;;;;;;;14.27;4.80;;;;;;;19.69;27.16;100518.09;4383618;32;33221;-90
2021/05/09 07:46:40;;;;;;;14.13;5.40;;;;;;;19.55;26.52;100506.16;4383785;32;34709;-90
2021/05/09 07:49:07;;;;;;;13.32;4.72;;;;;;;19.59;26.87;100510.44;4408528;32;34071;-90
2021/05/09 07:51:34;;;;;;;11.05;4.50;;;;;;;19.62;26.73;100506.84;4395561;32;32346;-91
2021/05/09 07:54:04;;;;;;;11.40;4.43;;;;;;;19.61;27.91;100504.25;4412009;32;33977;-89
2021/05/09 07:56:36;;;;;;;13.43;4.37;;;;;;;19.77;26.12;100509.09;4410350;32;34513;-89
2021/05/09 07:59:05;;;;;;;15.25;4.60;;;;;;;19.60;26.19;100511.31;4397955;32;33296;-89
2021/05/09 08:01:32;;;;;;;13.50;4.62;;;;;;;19.65;26.83;100516.47;4410517;32;33756;-90
2021/05/09 08:03:59;;;;;;;15.63;4.85;;;;;;;19.69;27.07;100513.69;4409513;32;34565;-89
2021/05/09 08:06:27;;;;;;;15.73;4.78;;;;;;;19.91;27.33;100524.56;4397344;32;34218;-90
2021/05/09 08:08:54;;;;;;;18.42;5.35;;;;;;;19.90;28.07;100521.06;4397790;32;34328;-90
2021/05/09 08:11:22;;;;;;;14.57;5.00;;;;;;;20.16;26.50;100526.50;4413173;32;33714;-90
2021/05/09 08:13:53;;;;;;;14.23;4.78;;;;;;;20.30;26.87;100514.72;4397833;32;33090;-89
2021/05/09 08:16:23;;;;;;;16.58;4.37;;;;;;;20.19;26.43;100525.53;4384847;32;34826;-89
2021/05/09 08:18:50;;;;;;;15.02;5.05;;;;;;;20.08;25.71;100524.97;4409341;32;33872;-88
2021/05/09 08:21:17;;;;;;;12.63;4.57;;;;;;;20.01;26.29;100526.06;4395781;32;34143;-92
2021/05/09 08:23:45;;;;;;;18.33;6.30;;;;;;;19.91;25.70;100524.56;4384739;32;33302;-89
2021/05/09 08:26:13;;;;;;;14.52;5.00;;;;;;;19.95;25.94;100531.47;4408471;32;34551;-92
2021/05/09 08:28:43;;;;;;;20.48;5.75;;;;;;;20.01;25.60;100523.41;4396663;32;34722;-89
2021/05/09 08:31:11;;;;;;;15.82;4.80;;;;;;;20.06;25.43;100518.87;4399266;32;33612;-90
2021/05/09 08:33:39;;;;;;;15.57;4.35;;;;;;;20.01;25.42;100512.84;4384730;32;34600;-88
2021/05/09 08:36:06;;;;;;;18.40;4.95;;;;;;;19.86;25.56;100522.06;4383724;32;33848;-89
2021/05/09 08:38:34;;;;;;;15.60;4.75;;;;;;;20.05;25.25;100517.12;4396271;32;33793;-88
2021/05/09 08:41:02;;;;;;;13.00;3.87;;;;;;;20.28;24.69;100506.81;4396034;32;32793;-86
2021/05/09 08:43:29;;;;;;;15.23;4.90;;;;;;;20.28;25.45;100513.91;4402834;32;33865;-88
2021/05/09 08:45:58;;;;;;;15.48;4.70;;;;;;;20.39;25.19;100510.03;4386598;32;33882;-88
2021/05/09 08:48:28;;;;;;;13.20;4.45;;;;;;;20.37;24.69;100508.34;4384634;32;34581;-88
2021/05/09 08:50:55;;;;;;;14.23;4.05;;;;;;;20.51;24.11;100506.16;4408382;32;33603;-88
2021/05/09 08:53:22;;;;;;;25.00;5.32;;;;;;;20.61;24.73;100512.94;4407724;32;32923;-88
2021/05/09 08:55:50;;;;;;;18.52;5.20;;;;;;;20.50;24.75;100500.00;4410432;32;34360;-90
2021/05/09 08:58:17;;;;;;;13.77;4.43;;;;;;;20.45;24.28;100509.84;4409855;32;33567;-87
2021/05/09 09:00:44;;;;;;;15.40;5.22;;;;;;;20.57;24.19;100500.69;4410053;32;33337;-88
2021/05/09 09:03:13;;;;;;;13.38;4.43;;;;;;;20.79;24.92;100501.78;4397319;32;33577;-88
2021/05/09 09:05:45;;;;;;;16.85;5.07;;;;;;;20.96;23.58;100507.41;4410129;32;34475;-87
2021/05/09 09:08:17;;;;;;;17.17;4.30;;;;;;;20.97;23.49;100509.13;4424254;32;34740;-88
2021/05/09 09:10:51;;;;;;;15.00;4.65;;;;;;;20.94;24.41;100507.44;4399874;32;33439;-88
2021/05/09 09:13:32;;;;;;;14.60;4.85;;;;;;;21.16;25.52;100510.31;4412466;32;34625;-88
2021/05/09 09:16:06;;;;;;;12.90;4.87;;;;;;;21.15;24.19;100513.03;4424769;32;35027;-91
2021/05/09 09:18:43;;;;;;;11.30;4.07;;;;;;;20.88;23.19;100515.59;4399344;32;33841;-88
2021/05/09 09:21:32;;;;;;;16.75;4.37;;;;;;;20.94;23.71;100506.59;4399332;32;33013;-89
2021/05/09 09:24:10;;;;;;;14.52;4.65;;;;;;;20.90;24.15;100510.22;4398411;32;34625;-89
2021/05/09 09:26:52;;;;;;;19.40;4.60;;;;;;;20.86;24.35;100498.91;4400163;32;34749;-90
2021/05/09 09:29:20;;;;;;;;;;;;;;;21.22;24.78;100504.84;4411758;32;33296;-88
2021/05/09 09:31:55;;;;;;;16.27;4.07;;;;;;;21.34;23.93;100511.50;4411801;32;33990;-88
2021/05/09 09:34:39;;;;;;;13.00;3.80;;;;;;;21.49;23.37;100505.69;4399712;32;34157;-90
2021/05/09 09:37:07;;;;;;;17.00;4.43;;;;;;;21.61;23.28;100499.97;4399006;32;35137;-86
2021/05/09 09:40:00;;;;;;;11.85;3.60;;;;;;;21.68;23.55;100503.31;4411392;32;34369;-89
2021/05/09 09:42:45;;;;;;;18.98;5.25;;;;;;;21.62;23.12;100501.72;4411677;32;33204;-90
2021/05/09 09:45:19;;;;;;;15.55;6.18;;;;;;;21.58;23.20;100500.12;4412293;32;33299;-91
2021/05/09 09:48:02;;;;;;;14.15;4.82;;;;;;;21.56;24.51;100497.50;4412299;32;33844;-90
2021/05/09 09:50:50;;;;;;;15.55;5.85;;;;;;;21.92;23.49;100516.56;4411676;32;32611;-90
2021/05/09 09:53:39;;;;;;;13.35;4.28;;;;;;;21.98;23.65;100505.78;4396684;32;34155;-90
2021/05/09 09:56:11;;;;;;;15.02;5.10;;;;;;;21.86;23.47;100508.88;4385046;32;33368;-89
2021/05/09 09:58:54;;;;;;;17.73;4.75;;;;;;;21.78;23.71;100500.28;4384637;32;33899;-89
2021/05/09 10:01:33;;;;;;;17.08;4.37;;;;;;;22.00;23.05;100487.19;4397474;32;33962;-87
2021/05/09 10:04:07;;;;;;;13.30;4.30;;;;;;;22.06;23.43;100487.81;4410154;32;34286;-88
2021/05/09 10:06:38;;;;;;;18.50;5.90;;;;;;;22.21;22.96;100483.75;4409738;32;35270;-89
2021/05/09 10:09:09;;;;;;;14.82;4.65;;;;;;;22.17;23.36;100483.00;4409639;32;35349;-88
2021/05/09 10:11:37;;;;;;;13.65;5.37;;;;;;;22.30;23.34;100477.25;4410084;32;34481;-88
2021/05/09 10:14:06;;;;;;;19.02;5.40;;;;;;;22.21;24.07;100489.91;4396629;32;33525;-87
2021/05/09 10:16:37;;;;;;;14.70;4.45;;;;;;;22.38;22.90;100484.00;4396626;32;34230;-90
2021/05/09 10:19:10;;;;;;;18.05;5.18;;;;;;;21.90;25.34;100491.94;4395987;32;34468;-87
2021/05/09 10:21:40;;;;;;;14.07;4.22;;;;;;;22.22;23.63;100480.19;4396404;32;34464;-88
2021/05/09 10:24:22;;;;;;;20.05;4.57;;;;;;;22.20;23.97;100469.62;4396297;32;33120;-88
2021/05/09 10:26:49;;;;;;;16.45;4.97;;;;;;;22.29;24.01;100464.91;4396453;32;34392;-89
2021/05/09 10:29:39;;;;;;;17.73;4.87;;;;;;;22.51;24.98;100468.50;4409275;32;34522;-88
2021/05/09 10:32:09;;;;;;;12.48;3.45;;;;;;;22.51;23.34;100468.50;4408529;32;33744;-89
2021/05/09 10:35:00;;;;;;;11.30;3.62;;;;;;;22.36;22.96;100466.41;4396493;32;33248;-89
2021/05/09 10:40:19;;;;;;;;;;;;;;;22.62;22.86;100461.00;4408873;32;34163;-90
2021/05/09 10:42:48;;;;;;;15.77;3.58;;;;;;;22.32;21.97;100446.25;4408551;32;34183;-89
2021/05/09 10:45:35;;;;;;;14.65;3.90;;;;;;;22.36;22.12;100455.81;4396338;32;32915;-90
2021/05/09 10:48:22;;;;;;;11.50;3.55;;;;;;;22.50;21.77;100446.41;4408601;32;34313;-89
2021/05/09 10:50:51;;;;;;;14.77;3.67;;;;;;;22.67;22.58;100451.97;4408345;32;35198;-89
2021/05/09 10:53:33;;;;;;;14.82;4.12;;;;;;;22.69;22.34;100454.53;4396003;32;34128;-91
2021/05/09 10:56:14;;;;;;;12.68;4.10;;;;;;;22.48;23.18;100452.69;4395991;32;32944;-91
2021/05/09 10:58:45;;;;;;;12.50;3.53;;;;;;;22.30;23.35;100442.81;4408749;32;33285;-88
2021/05/09 11:01:21;;;;;;;14.48;3.47;;;;;;;22.43;21.65;100446.72;4408410;32;35256;-89
2021/05/09 11:03:52;;;;;;;12.60;3.45;;;;;;;22.66;21.91;100442.28;4408247;32;33059;-89
2021/05/09 11:06:25;;;;;;;9.32;3.55;;;;;;;22.59;22.91;100439.88;4409357;32;33181;-89
2021/05/09 11:09:01;;;;;;;12.50;3.58;;;;;;;22.98;22.51;100435.69;4395876;32;34869;-88
2021/05/09 11:11:28;;;;;;;11.60;3.87;;;;;;;23.32;22.27;100432.50;4396073;32;35460;-89
2021/05/09 11:16:32;;;;;;;12.30;3.55;;;;;;;23.12;21.33;100427.16;4409744;32;34728;-88
2021/05/09 11:19:06;;;;;;;11.55;3.83;;;;;;;23.00;21.74;100425.88;4409272;32;35150;-88
2021/05/09 11:21:41;;;;;;;9.98;3.42;;;;;;;23.03;21.78;100423.09;4409361;32;34812;-90
2021/05/09 11:24:11;;;;;;;12.73;3.90;;;;;;;22.63;22.35;100438.91;4395826;32;34215;-89
2021/05/09 11:26:46;;;;;;;12.20;4.20;;;;;;;22.90;21.96;100432.47;4396279;32;33694;-89
2021/05/09 11:29:18;;;;;;;11.55;4.15;;;;;;;22.98;22.52;100427.72;4395691;32;34248;-89
2021/05/09 11:31:56;;;;;;;10.80;3.85;;;;;;;23.03;22.88;100420.44;4406857;32;35885;-89
2021/05/09 11:34:26;;;;;;;12.20;4.12;;;;;;;23.07;22.75;100416.72;4395302;32;34821;-92
2021/05/09 11:36:55;;;;;;;12.93;4.12;;;;;;;22.83;23.21;100417.72;4395795;32;33251;-88
2021/05/09 11:39:28;;;;;;;13.20;4.07;;;;;;;23.15;23.07;100409.31;4395377;32;33979;-89
2021/05/09 11:42:16;;;;;;;10.38;3.90;;;;;;;23.13;22.46;100410.31;4409048;32;35701;-89
2021/05/09 11:44:47;;;;;;;17.05;4.85;;;;;;;23.05;22.74;100405.31;4408302;32;33414;-88
2021/05/09 11:47:23;;;;;;;13.88;4.43;;;;;;;23.26;22.76;100395.59;4395751;32;32486;-89
2021/05/09 11:50:07;;;;;;;15.00;5.03;;;;;;;23.33;22.56;100402.34;4395967;32;33306;-89
2021/05/09 11:52:37;;;;;;;12.13;4.43;;;;;;;23.17;21.94;100390.69;4395632;32;34805;-89
2021/05/09 11:55:06;;;;;;;13.57;4.40;;;;;;;22.95;22.17;100395.16;4396093;32;33344;-89
2021/05/09 11:57:37;;;;;;;15.95;4.50;;;;;;;22.89;22.43;100394.47;4397254;32;33821;-88
2021/05/09 12:00:12;;;;;;;10.18;3.78;;;;;;;22.91;22.34;100394.41;4383681;32;34764;-88
2021/05/09 12:02:44;;;;;;;8.80;3.40;;;;;;;22.95;22.38;100390.72;4396029;32;34085;-89
2021/05/09 12:05:16;;;;;;;11.18;3.83;;;;;;;23.19;21.98;100392.34;4395699;32;33973;-90
2021/05/09 12:07:52;;;;;;;13.52;3.87;;;;;;;23.06;22.25;100388.47;4396594;32;33953;-89
2021/05/09 12:10:25;;;;;;;10.27;3.28;;;;;;;23.30;22.10;100386.56;4408595;32;34724;-87
2021/05/09 12:13:05;;;;;;;10.70;3.40;;;;;;;23.31;22.27;100377.69;4408386;32;34688;-88
2021/05/09 12:15:37;;;;;;;11.18;4.10;;;;;;;23.41;21.98;100379.91;4408906;32;34184;-89
2021/05/09 12:18:06;;;;;;;12.52;3.80;;;;;;;22.99;21.58;100381.69;4408814;32;33748;-88
2021/05/09 12:20:43;;;;;;;11.93;3.80;;;;;;;23.36;21.48;100376.59;4395767;32;33275;-89
2021/05/09 12:23:31;;;;;;;9.80;3.92;;;;;;;23.36;21.37;100381.91;4383601;32;34793;-88